Time,TemperatureF,DewpointF,PressureIn,WindDirection,WindDirectionDegrees,WindSpeedMPH,WindSpeedGustMPH,Humidity,HourlyPrecipIn,Conditions,Clouds,dailyrainin,SolarRadiationWatts/m^2,SoftwareType,DateUTC
2013-03-02 00:00:00,20.3,14.5,30.19,North,351,5.0,8.0,78,0.00,,,0.00,0.0,meteohub,2013-03-02 05:00:00,
2013-03-02 00:05:00,20.7,14.9,30.19,NNE,26,3.0,7.0,78,0.00,,,0.00,0.0,meteohub,2013-03-02 05:05:00,
2013-03-02 00:10:00,20.8,14.7,30.19,NNE,27,4.0,11.0,77,0.00,,,0.00,0.0,meteohub,2013-03-02 05:10:00,
2013-03-02 00:15:00,20.8,14.7,30.19,NNE,13,2.0,11.0,77,0.00,,,0.00,0.0,meteohub,2013-03-02 05:15:00,
2013-03-02 00:20:00,20.8,14.7,30.19,North,10,4.0,6.0,77,0.00,,,0.00,0.0,meteohub,2013-03-02 05:20:00,
2013-03-02 00:26:00,20.7,14.5,30.19,NNE,22,4.0,7.0,77,0.00,,,0.00,0.0,meteohub,2013-03-02 05:26:00,
2013-03-02 00:31:00,20.7,14.5,30.19,NNE,12,3.0,7.0,77,0.00,,,0.00,0.0,meteohub,2013-03-02 05:31:00,
2013-03-02 00:36:00,20.5,14.4,30.19,NNE,13,3.0,7.0,77,0.00,,,0.00,0.0,meteohub,2013-03-02 05:36:00,
2013-03-02 00:41:00,20.5,14.4,30.19,NNE,15,5.0,8.0,77,0.00,,,0.00,0.0,meteohub,2013-03-02 05:41:00,
2013-03-02 00:46:00,20.5,14.4,30.19,NNE,28,4.0,8.0,77,0.00,,,0.00,0.0,meteohub,2013-03-02 05:46:00,
2013-03-02 00:51:00,20.3,14.2,30.19,NNE,23,4.0,8.0,77,0.00,,,0.00,0.0,meteohub,2013-03-02 05:51:00,
2013-03-02 00:56:00,20.1,14.0,30.19,North,355,3.0,8.0,77,0.00,,,0.00,0.0,meteohub,2013-03-02 05:56:00,
2013-03-02 01:01:00,20.1,13.8,30.19,NNE,23,2.0,8.0,76,0.00,,,0.00,0.0,meteohub,2013-03-02 06:01:00,
2013-03-02 01:06:00,20.1,14.0,30.19,NNW,339,4.0,6.0,77,0.00,,,0.00,0.0,meteohub,2013-03-02 06:06:00,
2013-03-02 01:11:00,19.9,13.6,30.19,NNE,25,7.0,9.0,76,0.00,,,0.00,0.0,meteohub,2013-03-02 06:11:00,
2013-03-02 01:16:00,19.9,13.6,30.19,NNE,30,4.0,12.0,76,0.00,,,0.00,0.0,meteohub,2013-03-02 06:16:00,
2013-03-02 01:21:00,19.9,13.6,30.19,NNE,17,4.0,12.0,76,0.00,,,0.00,0.0,meteohub,2013-03-02 06:21:00,
2013-03-02 01:26:00,19.8,13.6,30.19,NNE,24,5.0,12.0,77,0.00,,,0.00,0.0,meteohub,2013-03-02 06:26:00,
2013-03-02 01:31:00,19.8,13.6,30.19,NE,38,3.0,11.0,77,0.00,,,0.00,0.0,meteohub,2013-03-02 06:31:00,
2013-03-02 01:36:00,19.8,13.6,30.19,NNE,26,2.0,10.0,77,0.00,,,0.00,0.0,meteohub,2013-03-02 06:36:00,
2013-03-02 01:41:00,19.6,13.6,30.19,NNE,30,3.0,8.0,77,0.00,,,0.00,0.0,meteohub,2013-03-02 06:41:00,
2013-03-02 01:46:00,19.6,13.6,30.19,North,5,2.0,7.0,77,0.00,,,0.00,0.0,meteohub,2013-03-02 06:46:00,
2013-03-02 01:51:00,19.4,13.1,30.19,NNE,15,3.0,11.0,76,0.00,,,0.00,0.0,meteohub,2013-03-02 06:51:00,
2013-03-02 01:56:00,19.2,13.3,30.19,North,11,4.0,11.0,77,0.00,,,0.00,0.0,meteohub,2013-03-02 06:56:00,
2013-03-02 02:01:00,19.0,12.7,30.20,NNE,15,2.0,10.0,76,0.00,,,0.00,0.0,meteohub,2013-03-02 07:01:00,
2013-03-02 02:06:00,19.0,13.1,30.20,North,5,3.0,7.0,77,0.00,,,0.00,0.0,meteohub,2013-03-02 07:06:00,
2013-03-02 02:11:00,18.9,12.9,30.19,North,5,2.0,7.0,77,0.00,,,0.00,0.0,meteohub,2013-03-02 07:11:00,
2013-03-02 02:16:00,18.7,12.7,30.20,NNE,14,4.0,7.0,77,0.00,,,0.00,0.0,meteohub,2013-03-02 07:16:00,
2013-03-02 02:21:00,18.7,12.7,30.19,NNW,344,5.0,7.0,77,0.00,,,0.00,0.0,meteohub,2013-03-02 07:21:00,
2013-03-02 02:26:00,18.7,12.7,30.19,North,9,3.0,7.0,77,0.00,,,0.00,0.0,meteohub,2013-03-02 07:26:00,
2013-03-02 02:31:00,18.3,12.4,30.19,NNE,25,6.0,7.0,77,0.00,,,0.00,0.0,meteohub,2013-03-02 07:31:00,
2013-03-02 02:37:00,18.3,12.4,30.19,North,355,3.0,9.0,77,0.00,,,0.00,0.0,meteohub,2013-03-02 07:37:00,
2013-03-02 02:42:00,18.1,12.2,30.19,NNE,17,3.0,9.0,77,0.00,,,0.00,0.0,meteohub,2013-03-02 07:42:00,
2013-03-02 02:47:00,18.1,12.4,30.18,North,0,4.0,6.0,78,0.00,,,0.00,0.0,meteohub,2013-03-02 07:47:00,
2013-03-02 02:52:00,18.0,12.0,30.18,North,9,2.0,7.0,77,0.00,,,0.00,0.0,meteohub,2013-03-02 07:52:00,
2013-03-02 02:57:00,17.8,12.0,30.19,North,355,2.0,8.0,78,0.00,,,0.00,0.0,meteohub,2013-03-02 07:57:00,
2013-03-02 03:02:00,17.6,11.8,30.18,North,0,4.0,8.0,78,0.00,,,0.00,0.0,meteohub,2013-03-02 08:02:00,
2013-03-02 03:07:00,17.4,12.0,30.18,North,355,5.0,8.0,79,0.00,,,0.00,0.0,meteohub,2013-03-02 08:07:00,
2013-03-02 03:12:00,17.4,11.7,30.19,NNW,332,2.0,7.0,78,0.00,,,0.00,0.0,meteohub,2013-03-02 08:12:00,
2013-03-02 03:17:00,17.4,12.0,30.18,NNE,13,2.0,7.0,79,0.00,,,0.00,0.0,meteohub,2013-03-02 08:17:00,
2013-03-02 03:22:00,17.2,11.5,30.18,NW,325,3.0,6.0,78,0.00,,,0.00,0.0,meteohub,2013-03-02 08:22:00,
2013-03-02 03:27:00,17.1,11.7,30.18,North,355,2.0,4.0,79,0.00,,,0.00,0.0,meteohub,2013-03-02 08:27:00,
2013-03-02 03:32:00,17.1,11.5,30.18,North,355,3.0,4.0,78,0.00,,,0.00,0.0,meteohub,2013-03-02 08:32:00,
2013-03-02 03:37:00,16.9,11.3,30.18,North,5,2.0,5.0,78,0.00,,,0.00,0.0,meteohub,2013-03-02 08:37:00,
2013-03-02 03:42:00,16.9,11.5,30.18,NNE,31,3.0,5.0,79,0.00,,,0.00,0.0,meteohub,2013-03-02 08:42:00,
2013-03-02 03:47:00,16.9,11.5,30.18,North,5,3.0,6.0,79,0.00,,,0.00,0.0,meteohub,2013-03-02 08:47:00,
2013-03-02 03:52:00,16.7,11.3,30.18,North,355,2.0,10.0,79,0.00,,,0.00,0.0,meteohub,2013-03-02 08:52:00,
2013-03-02 03:57:00,16.5,11.1,30.18,North,355,2.0,10.0,79,0.00,,,0.00,0.0,meteohub,2013-03-02 08:57:00,
2013-03-02 04:02:00,16.5,11.1,30.17,NNW,344,3.0,10.0,79,0.00,,,0.00,0.0,meteohub,2013-03-02 09:02:00,
2013-03-02 04:07:00,16.3,10.9,30.17,North,351,3.0,5.0,79,0.00,,,0.00,0.0,meteohub,2013-03-02 09:07:00,
2013-03-02 04:12:00,16.3,10.9,30.17,North,355,3.0,4.0,79,0.00,,,0.00,0.0,meteohub,2013-03-02 09:12:00,
2013-03-02 04:17:00,16.3,10.9,30.17,NNW,345,3.0,4.0,79,0.00,,,0.00,0.0,meteohub,2013-03-02 09:17:00,
2013-03-02 04:22:00,16.2,10.8,30.17,North,355,2.0,5.0,79,0.00,,,0.00,0.0,meteohub,2013-03-02 09:22:00,
2013-03-02 04:27:00,16.2,11.1,30.17,North,355,2.0,5.0,80,0.00,,,0.00,0.0,meteohub,2013-03-02 09:27:00,
2013-03-02 04:32:00,16.2,10.8,30.17,North,355,1.0,5.0,79,0.00,,,0.00,0.0,meteohub,2013-03-02 09:32:00,
2013-03-02 04:37:00,16.2,11.1,30.17,NNE,17,1.0,6.0,80,0.00,,,0.00,0.0,meteohub,2013-03-02 09:37:00,
2013-03-02 04:42:00,16.0,10.9,30.17,NNW,338,3.0,6.0,80,0.00,,,0.00,0.0,meteohub,2013-03-02 09:42:00,
2013-03-02 04:47:00,16.0,10.9,30.17,North,5,1.0,6.0,80,0.00,,,0.00,0.0,meteohub,2013-03-02 09:47:00,
2013-03-02 04:52:00,16.0,10.9,30.17,NNW,344,2.0,4.0,80,0.00,,,0.00,0.0,meteohub,2013-03-02 09:52:00,
2013-03-02 04:57:00,16.0,11.1,30.17,NNW,341,4.0,5.0,81,0.00,,,0.00,0.0,meteohub,2013-03-02 09:57:00,
2013-03-02 05:02:00,15.8,10.9,30.17,NNW,339,2.0,5.0,81,0.00,,,0.00,0.0,meteohub,2013-03-02 10:02:00,
2013-03-02 05:08:00,15.8,10.9,30.17,NNW,340,3.0,5.0,81,0.00,,,0.00,0.0,meteohub,2013-03-02 10:08:00,
2013-03-02 05:13:00,15.6,10.6,30.17,North,355,2.0,5.0,80,0.00,,,0.00,0.0,meteohub,2013-03-02 10:13:00,
2013-03-02 05:18:00,15.6,10.8,30.17,NNW,332,2.0,5.0,81,0.00,,,0.00,0.0,meteohub,2013-03-02 10:18:00,
2013-03-02 05:23:00,15.6,10.8,30.17,NNW,340,3.0,5.0,81,0.00,,,0.00,0.0,meteohub,2013-03-02 10:23:00,
2013-03-02 05:28:00,15.6,10.8,30.17,North,5,2.0,4.0,81,0.00,,,0.00,0.0,meteohub,2013-03-02 10:28:00,
2013-03-02 05:33:00,15.6,10.8,30.17,NNW,348,2.0,5.0,81,0.00,,,0.00,0.0,meteohub,2013-03-02 10:33:00,
2013-03-02 05:39:00,15.4,10.6,30.17,NW,325,2.0,5.0,81,0.00,,,0.00,0.0,meteohub,2013-03-02 10:39:00,
2013-03-02 05:45:00,15.4,10.6,30.17,NNW,334,2.0,5.0,81,0.00,,,0.00,0.0,meteohub,2013-03-02 10:45:00,
2013-03-02 05:50:00,15.4,10.9,30.18,NNW,334,2.0,4.0,82,0.00,,,0.00,0.0,meteohub,2013-03-02 10:50:00,
2013-03-02 05:55:00,15.4,10.9,30.18,NNW,340,2.0,3.0,82,0.00,,,0.00,0.0,meteohub,2013-03-02 10:55:00,
2013-03-02 06:00:00,15.3,10.8,30.18,NW,325,2.0,3.0,82,0.00,,,0.00,0.0,meteohub,2013-03-02 11:00:00,
2013-03-02 06:05:00,15.3,11.1,30.18,NNW,336,3.0,3.0,83,0.00,,,0.00,0.0,meteohub,2013-03-02 11:05:00,
2013-03-02 06:10:00,15.3,11.1,30.17,NW,323,1.0,4.0,83,0.00,,,0.00,0.0,meteohub,2013-03-02 11:10:00,
2013-03-02 06:15:00,15.3,11.1,30.18,NNW,348,2.0,4.0,83,0.00,,,0.00,0.0,meteohub,2013-03-02 11:15:00,
2013-03-02 06:20:00,15.3,11.1,30.18,NNW,348,2.0,4.0,83,0.00,,,0.00,0.0,meteohub,2013-03-02 11:20:00,
2013-03-02 06:25:00,15.3,11.1,30.18,North,5,3.0,4.0,83,0.00,,,0.00,0.0,meteohub,2013-03-02 11:25:00,
2013-03-02 06:30:00,15.3,11.1,30.18,NNW,347,1.0,5.0,83,0.00,,,0.00,0.0,meteohub,2013-03-02 11:30:00,
2013-03-02 06:35:00,15.3,11.1,30.18,NNW,346,2.0,5.0,83,0.00,,,0.00,0.0,meteohub,2013-03-02 11:35:00,
2013-03-02 06:40:00,15.3,11.3,30.18,NNW,346,1.0,5.0,84,0.00,,,0.00,0.0,meteohub,2013-03-02 11:40:00,
2013-03-02 06:46:00,15.3,11.3,30.18,North,5,1.0,4.0,84,0.00,,,0.00,0.0,meteohub,2013-03-02 11:46:00,
2013-03-02 06:51:00,15.1,11.1,30.18,North,0,2.0,4.0,84,0.00,,,0.00,0.0,meteohub,2013-03-02 11:51:00,
2013-03-02 06:56:00,15.1,11.1,30.18,North,355,2.0,4.0,84,0.00,,,0.00,0.0,meteohub,2013-03-02 11:56:00,
2013-03-02 07:01:00,14.9,10.8,30.18,NNW,339,2.0,4.0,83,0.00,,,0.00,0.0,meteohub,2013-03-02 12:01:00,
2013-03-02 07:06:00,14.7,10.8,30.18,NNW,331,2.0,4.0,84,0.00,,,0.00,0.0,meteohub,2013-03-02 12:06:00,
2013-03-02 07:11:00,14.7,10.8,30.18,North,0,3.0,4.0,84,0.00,,,0.00,0.0,meteohub,2013-03-02 12:11:00,
2013-03-02 07:16:00,14.7,10.8,30.18,North,351,1.0,4.0,84,0.00,,,0.00,0.0,meteohub,2013-03-02 12:16:00,
2013-03-02 07:21:00,14.5,10.6,30.18,North,355,2.0,4.0,84,0.00,,,0.00,5.0,meteohub,2013-03-02 12:21:00,
2013-03-02 07:26:00,14.5,10.6,30.18,North,0,2.0,4.0,84,0.00,,,0.00,7.0,meteohub,2013-03-02 12:26:00,
2013-03-02 07:31:00,14.5,10.6,30.18,NNW,330,1.0,4.0,84,0.00,,,0.00,9.0,meteohub,2013-03-02 12:31:00,
2013-03-02 07:36:00,14.5,10.6,30.18,NW,324,0.0,8.0,84,0.00,,,0.00,9.0,meteohub,2013-03-02 12:36:00,
2013-03-02 07:41:00,14.4,10.2,30.18,NW,324,1.0,8.0,83,0.00,,,0.00,11.0,meteohub,2013-03-02 12:41:00,
2013-03-02 07:46:00,14.2,10.0,30.18,NW,317,2.0,3.0,83,0.00,,,0.00,18.0,meteohub,2013-03-02 12:46:00,
2013-03-02 07:51:00,14.0,9.9,30.18,NW,313,2.0,3.0,83,0.00,,,0.00,28.0,meteohub,2013-03-02 12:51:00,
2013-03-02 07:56:00,13.8,9.7,30.18,NW,314,2.0,3.0,83,0.00,,,0.00,33.0,meteohub,2013-03-02 12:56:00,
2013-03-02 08:01:00,13.6,9.5,30.19,NW,314,2.0,3.0,83,0.00,,,0.00,44.0,meteohub,2013-03-02 13:01:00,
2013-03-02 08:06:00,13.5,9.3,30.18,NW,326,2.0,4.0,83,0.00,,,0.00,51.0,meteohub,2013-03-02 13:06:00,
2013-03-02 08:11:00,13.5,9.3,30.18,NW,322,1.0,4.0,83,0.00,,,0.00,62.0,meteohub,2013-03-02 13:11:00,
2013-03-02 08:16:00,13.3,9.1,30.19,NW,306,2.0,4.0,83,0.00,,,0.00,69.0,meteohub,2013-03-02 13:16:00,
2013-03-02 08:21:00,13.3,9.1,30.19,NW,317,2.0,4.0,83,0.00,,,0.00,74.0,meteohub,2013-03-02 13:21:00,
2013-03-02 08:26:00,13.5,9.3,30.19,NNW,333,2.0,3.0,83,0.00,,,0.00,81.0,meteohub,2013-03-02 13:26:00,
2013-03-02 08:31:00,13.5,9.3,30.19,NNW,348,1.0,4.0,83,0.00,,,0.00,91.0,meteohub,2013-03-02 13:31:00,
2013-03-02 08:36:00,13.5,9.3,30.19,NW,312,2.0,4.0,83,0.00,,,0.00,95.0,meteohub,2013-03-02 13:36:00,
2013-03-02 08:41:00,13.6,9.5,30.19,NW,325,2.0,4.0,83,0.00,,,0.00,95.0,meteohub,2013-03-02 13:41:00,
2013-03-02 08:46:00,13.6,9.5,30.19,NNW,329,1.0,4.0,83,0.00,,,0.00,97.0,meteohub,2013-03-02 13:46:00,
2013-03-02 08:51:00,13.8,9.7,30.19,WNW,302,3.0,3.0,83,0.00,,,0.00,109.0,meteohub,2013-03-02 13:51:00,
2013-03-02 08:56:00,13.8,9.7,30.19,North,349,3.0,3.0,83,0.00,,,0.00,116.0,meteohub,2013-03-02 13:56:00,
2013-03-02 09:01:00,14.0,9.9,30.18,North,355,2.0,3.0,83,0.00,,,0.00,125.0,meteohub,2013-03-02 14:01:00,
2013-03-02 09:06:00,14.2,10.0,30.19,NW,312,4.0,4.0,83,0.00,,,0.00,135.0,meteohub,2013-03-02 14:06:00,
2013-03-02 09:11:00,14.2,10.0,30.18,North,0,2.0,5.0,83,0.00,,,0.00,139.0,meteohub,2013-03-02 14:11:00,
2013-03-02 09:16:00,14.2,10.0,30.18,North,355,2.0,5.0,83,0.00,,,0.00,148.0,meteohub,2013-03-02 14:16:00,
2013-03-02 09:21:00,14.4,10.2,30.18,NNW,340,1.0,5.0,83,0.00,,,0.00,151.0,meteohub,2013-03-02 14:21:00,
2013-03-02 09:26:00,14.5,10.4,30.18,NNW,333,1.0,4.0,83,0.00,,,0.00,155.0,meteohub,2013-03-02 14:26:00,
2013-03-02 09:32:00,14.7,10.6,30.18,NNW,341,2.0,4.0,83,0.00,,,0.00,160.0,meteohub,2013-03-02 14:32:00,
2013-03-02 09:37:00,14.7,10.6,30.19,NW,315,4.0,4.0,83,0.00,,,0.00,169.0,meteohub,2013-03-02 14:37:00,
2013-03-02 09:42:00,14.5,10.0,30.19,NNE,28,3.0,4.0,82,0.00,,,0.00,169.0,meteohub,2013-03-02 14:42:00,
2013-03-02 09:47:00,14.7,10.6,30.19,NW,313,1.0,4.0,83,0.00,,,0.00,178.0,meteohub,2013-03-02 14:47:00,
2013-03-02 09:52:00,14.9,10.4,30.19,NW,313,2.0,4.0,82,0.00,,,0.00,193.0,meteohub,2013-03-02 14:52:00,
2013-03-02 09:57:00,15.1,10.9,30.19,NNW,332,3.0,4.0,83,0.00,,,0.00,183.0,meteohub,2013-03-02 14:57:00,
2013-03-02 10:02:00,15.4,11.1,30.18,NNW,339,2.0,3.0,83,0.00,,,0.00,197.0,meteohub,2013-03-02 15:02:00,
2013-03-02 10:07:00,15.4,11.1,30.18,NNW,329,2.0,4.0,83,0.00,,,0.00,221.0,meteohub,2013-03-02 15:07:00,
2013-03-02 10:12:00,15.6,11.3,30.18,NNW,335,2.0,4.0,83,0.00,,,0.00,239.0,meteohub,2013-03-02 15:12:00,
2013-03-02 10:17:00,15.8,11.5,30.18,NNW,340,4.0,4.0,83,0.00,,,0.00,207.0,meteohub,2013-03-02 15:17:00,
2013-03-02 10:22:00,15.8,11.3,30.18,NW,321,2.0,5.0,82,0.00,,,0.00,241.0,meteohub,2013-03-02 15:22:00,
2013-03-02 10:27:00,16.0,11.7,30.18,North,355,2.0,7.0,83,0.00,,,0.00,234.0,meteohub,2013-03-02 15:27:00,
2013-03-02 10:32:00,16.3,11.8,30.18,NNW,338,3.0,7.0,82,0.00,,,0.00,244.0,meteohub,2013-03-02 15:32:00,
2013-03-02 10:37:00,16.3,11.8,30.18,NW,323,1.0,4.0,82,0.00,,,0.00,257.0,meteohub,2013-03-02 15:37:00,
2013-03-02 10:42:00,16.5,12.0,30.19,NW,304,2.0,4.0,82,0.00,,,0.00,264.0,meteohub,2013-03-02 15:42:00,
2013-03-02 10:47:00,16.5,12.0,30.19,NW,319,2.0,4.0,82,0.00,,,0.00,230.0,meteohub,2013-03-02 15:47:00,
2013-03-02 10:52:00,16.7,12.2,30.19,NNW,338,1.0,4.0,82,0.00,,,0.00,255.0,meteohub,2013-03-02 15:52:00,
2013-03-02 10:57:00,16.9,12.4,30.18,NNE,12,3.0,4.0,82,0.00,,,0.00,299.0,meteohub,2013-03-02 15:57:00,
2013-03-02 11:02:00,17.1,12.6,30.18,NNE,25,3.0,5.0,82,0.00,,,0.00,306.0,meteohub,2013-03-02 16:02:00,
2013-03-02 11:07:00,17.1,12.2,30.18,North,5,2.0,6.0,81,0.00,,,0.00,318.0,meteohub,2013-03-02 16:07:00,
2013-03-02 11:12:00,17.2,12.4,30.18,NW,307,2.0,6.0,81,0.00,,,0.00,315.0,meteohub,2013-03-02 16:12:00,
2013-03-02 11:17:00,17.8,12.7,30.18,WNW,300,2.0,7.0,80,0.00,,,0.00,313.0,meteohub,2013-03-02 16:17:00,
2013-03-02 11:22:00,18.1,13.1,30.18,NW,321,1.0,7.0,80,0.00,,,0.00,318.0,meteohub,2013-03-02 16:22:00,
2013-03-02 11:27:00,18.1,12.7,30.18,North,355,3.0,5.0,79,0.00,,,0.00,330.0,meteohub,2013-03-02 16:27:00,
2013-03-02 11:32:00,17.8,12.7,30.18,WNW,297,3.0,5.0,80,0.00,,,0.00,327.0,meteohub,2013-03-02 16:32:00,
2013-03-02 11:37:00,17.8,12.9,30.18,NW,316,1.0,6.0,81,0.00,,,0.00,338.0,meteohub,2013-03-02 16:37:00,
2013-03-02 11:42:00,18.1,12.7,30.18,NNW,336,2.0,6.0,79,0.00,,,0.00,332.0,meteohub,2013-03-02 16:42:00,
2013-03-02 11:47:00,17.8,12.7,30.18,NW,316,2.0,5.0,80,0.00,,,0.00,332.0,meteohub,2013-03-02 16:47:00,
2013-03-02 11:52:00,18.0,12.9,30.18,North,0,2.0,4.0,80,0.00,,,0.00,338.0,meteohub,2013-03-02 16:52:00,
2013-03-02 11:57:00,18.1,12.7,30.18,NW,304,2.0,5.0,79,0.00,,,0.00,329.0,meteohub,2013-03-02 16:57:00,
2013-03-02 12:02:00,18.3,12.9,30.18,NNW,329,1.0,5.0,79,0.00,,,0.00,350.0,meteohub,2013-03-02 17:02:00,
2013-03-02 12:07:00,18.5,13.1,30.18,NW,310,2.0,5.0,79,0.00,,,0.00,329.0,meteohub,2013-03-02 17:07:00,
2013-03-02 12:12:00,18.7,13.5,30.18,WNW,298,3.0,4.0,80,0.00,,,0.00,373.0,meteohub,2013-03-02 17:12:00,
2013-03-02 12:17:00,18.9,13.6,30.18,NW,312,3.0,5.0,80,0.00,,,0.00,396.0,meteohub,2013-03-02 17:17:00,
2013-03-02 12:22:00,19.2,13.5,30.17,NNW,331,2.0,5.0,78,0.00,,,0.00,404.0,meteohub,2013-03-02 17:22:00,
2013-03-02 12:27:00,19.2,13.8,30.17,North,355,3.0,5.0,79,0.00,,,0.00,522.0,meteohub,2013-03-02 17:27:00,
2013-03-02 12:32:00,19.8,13.6,30.17,NW,308,3.0,5.0,77,0.00,,,0.00,457.0,meteohub,2013-03-02 17:32:00,
2013-03-02 12:37:00,19.6,13.8,30.17,NE,36,4.0,6.0,78,0.00,,,0.00,469.0,meteohub,2013-03-02 17:37:00,
2013-03-02 12:42:00,19.9,13.8,30.17,NNE,32,2.0,7.0,77,0.00,,,0.00,436.0,meteohub,2013-03-02 17:42:00,
2013-03-02 12:47:00,20.1,14.0,30.17,NNE,29,4.0,8.0,77,0.00,,,0.00,503.0,meteohub,2013-03-02 17:47:00,
2013-03-02 12:53:00,19.9,13.6,30.17,NNE,19,3.0,9.0,76,0.00,,,0.00,366.0,meteohub,2013-03-02 17:53:00,
2013-03-02 12:58:00,20.1,13.5,30.16,NNW,331,1.0,9.0,75,0.00,,,0.00,369.0,meteohub,2013-03-02 17:58:00,
2013-03-02 13:03:00,20.8,13.6,30.16,NNE,27,2.0,7.0,73,0.00,,,0.00,485.0,meteohub,2013-03-02 18:03:00,
2013-03-02 13:08:00,20.7,13.5,30.16,NNW,330,2.0,5.0,73,0.00,,,0.00,837.0,meteohub,2013-03-02 18:08:00,
2013-03-02 13:13:00,20.7,13.6,30.15,North,355,4.0,7.0,74,0.00,,,0.00,729.0,meteohub,2013-03-02 18:13:00,
2013-03-02 13:18:00,21.4,13.8,30.15,NW,324,2.0,7.0,72,0.00,,,0.00,680.0,meteohub,2013-03-02 18:18:00,
2013-03-02 13:23:00,22.3,14.7,30.15,NNE,17,1.0,7.0,72,0.00,,,0.00,698.0,meteohub,2013-03-02 18:23:00,
2013-03-02 13:28:00,22.3,14.4,30.15,NW,310,2.0,7.0,71,0.00,,,0.00,740.0,meteohub,2013-03-02 18:28:00,
2013-03-02 13:33:00,21.7,13.1,30.15,NNE,23,5.0,7.0,69,0.00,,,0.00,654.0,meteohub,2013-03-02 18:33:00,
2013-03-02 13:38:00,21.7,13.5,30.14,NNW,342,4.0,8.0,70,0.00,,,0.00,622.0,meteohub,2013-03-02 18:38:00,
2013-03-02 13:43:00,22.6,14.0,30.14,North,355,4.0,8.0,69,0.00,,,0.00,656.0,meteohub,2013-03-02 18:43:00,
2013-03-02 13:48:00,22.1,13.1,30.14,NNW,348,2.0,8.0,68,0.00,,,0.00,610.0,meteohub,2013-03-02 18:48:00,
2013-03-02 13:53:00,23.2,14.2,30.14,NNW,336,3.0,7.0,68,0.00,,,0.00,668.0,meteohub,2013-03-02 18:53:00,
2013-03-02 13:58:00,22.6,13.3,30.14,North,355,7.0,7.0,67,0.00,,,0.00,635.0,meteohub,2013-03-02 18:58:00,
2013-03-02 14:03:00,23.4,14.0,30.14,NW,326,4.0,7.0,67,0.00,,,0.00,640.0,meteohub,2013-03-02 19:03:00,
2013-03-02 14:08:00,22.8,13.1,30.14,NNW,327,3.0,11.0,66,0.00,,,0.00,642.0,meteohub,2013-03-02 19:08:00,
2013-03-02 14:13:00,23.7,14.0,30.14,NNW,339,1.0,11.0,66,0.00,,,0.00,643.0,meteohub,2013-03-02 19:13:00,
2013-03-02 14:18:00,23.5,13.5,30.14,North,5,3.0,7.0,65,0.00,,,0.00,666.0,meteohub,2013-03-02 19:18:00,
2013-03-02 14:23:00,23.4,13.6,30.13,NNE,19,5.0,7.0,66,0.00,,,0.00,661.0,meteohub,2013-03-02 19:23:00,
2013-03-02 14:28:00,24.1,14.0,30.13,North,349,3.0,8.0,65,0.00,,,0.00,622.0,meteohub,2013-03-02 19:28:00,
2013-03-02 14:34:00,23.7,13.3,30.13,NNW,327,3.0,8.0,64,0.00,,,0.00,515.0,meteohub,2013-03-02 19:34:00,
2013-03-02 14:39:00,23.7,13.6,30.13,NNW,337,4.0,6.0,65,0.00,,,0.00,559.0,meteohub,2013-03-02 19:39:00,
2013-03-02 14:44:00,23.9,13.8,30.13,NNW,343,2.0,9.0,65,0.00,,,0.00,543.0,meteohub,2013-03-02 19:44:00,
2013-03-02 14:49:00,23.7,13.3,30.13,NNE,23,5.0,9.0,64,0.00,,,0.00,548.0,meteohub,2013-03-02 19:49:00,
2013-03-02 14:54:00,24.1,13.3,30.13,NNW,327,3.0,8.0,63,0.00,,,0.00,563.0,meteohub,2013-03-02 19:54:00,
2013-03-02 14:59:00,24.4,13.3,30.12,NNW,342,3.0,8.0,62,0.00,,,0.00,563.0,meteohub,2013-03-02 19:59:00,
2013-03-02 15:04:00,24.4,12.9,30.12,North,355,2.0,8.0,61,0.00,,,0.00,568.0,meteohub,2013-03-02 20:04:00,
2013-03-02 15:09:00,25.0,13.1,30.12,North,0,3.0,7.0,60,0.00,,,0.00,561.0,meteohub,2013-03-02 20:09:00,
2013-03-02 15:14:00,24.6,12.7,30.12,NNW,344,4.0,7.0,60,0.00,,,0.00,552.0,meteohub,2013-03-02 20:14:00,
2013-03-02 15:19:00,24.6,13.5,30.12,NNE,29,2.0,6.0,62,0.00,,,0.00,536.0,meteohub,2013-03-02 20:19:00,
2013-03-02 15:24:00,25.3,13.8,30.12,NW,309,4.0,6.0,61,0.00,,,0.00,526.0,meteohub,2013-03-02 20:24:00,
2013-03-02 15:29:00,25.2,14.4,30.12,NNE,13,3.0,6.0,63,0.00,,,0.00,473.0,meteohub,2013-03-02 20:29:00,
2013-03-02 15:34:00,25.3,14.2,30.12,NNW,332,3.0,6.0,62,0.00,,,0.00,492.0,meteohub,2013-03-02 20:34:00,
2013-03-02 15:39:00,24.8,13.3,30.11,NW,307,3.0,6.0,61,0.00,,,0.00,482.0,meteohub,2013-03-02 20:39:00,
2013-03-02 15:44:00,24.8,13.6,30.11,NNW,341,4.0,6.0,62,0.00,,,0.00,475.0,meteohub,2013-03-02 20:44:00,
2013-03-02 15:49:00,25.2,14.0,30.12,NNW,344,4.0,6.0,62,0.00,,,0.00,466.0,meteohub,2013-03-02 20:49:00,
2013-03-02 15:54:00,25.0,13.5,30.11,North,350,4.0,6.0,61,0.00,,,0.00,457.0,meteohub,2013-03-02 20:54:00,
2013-03-02 15:59:00,25.3,13.8,30.12,North,9,6.0,7.0,61,0.00,,,0.00,431.0,meteohub,2013-03-02 20:59:00,
2013-03-02 16:04:00,25.3,13.8,30.12,North,350,1.0,7.0,61,0.00,,,0.00,411.0,meteohub,2013-03-02 21:04:00,
2013-03-02 16:09:00,25.5,14.4,30.12,North,355,4.0,7.0,62,0.00,,,0.00,392.0,meteohub,2013-03-02 21:09:00,
2013-03-02 16:14:00,25.3,14.2,30.12,NNE,17,2.0,6.0,62,0.00,,,0.00,390.0,meteohub,2013-03-02 21:14:00,
2013-03-02 16:19:00,25.5,14.0,30.12,NNW,340,2.0,6.0,61,0.00,,,0.00,390.0,meteohub,2013-03-02 21:19:00,
2013-03-02 16:24:00,25.5,14.4,30.12,NNW,348,2.0,5.0,62,0.00,,,0.00,376.0,meteohub,2013-03-02 21:24:00,
2013-03-02 16:29:00,25.5,14.0,30.12,North,5,3.0,5.0,61,0.00,,,0.00,364.0,meteohub,2013-03-02 21:29:00,
2013-03-02 16:34:00,25.5,14.4,30.12,NNE,24,2.0,8.0,62,0.00,,,0.00,350.0,meteohub,2013-03-02 21:34:00,
2013-03-02 16:39:00,25.9,14.7,30.12,NNW,342,2.0,8.0,62,0.00,,,0.00,330.0,meteohub,2013-03-02 21:39:00,
2013-03-02 16:45:00,25.5,14.4,30.12,NNW,344,1.0,8.0,62,0.00,,,0.00,292.0,meteohub,2013-03-02 21:45:00,
2013-03-02 16:49:00,25.5,14.7,30.12,NNW,347,2.0,4.0,63,0.00,,,0.00,239.0,meteohub,2013-03-02 21:49:00,
2013-03-02 16:55:00,25.3,14.9,30.12,NW,304,1.0,4.0,64,0.00,,,0.00,202.0,meteohub,2013-03-02 21:55:00,
2013-03-02 17:00:00,25.5,15.1,30.12,NW,320,3.0,5.0,64,0.00,,,0.00,121.0,meteohub,2013-03-02 22:00:00,
2013-03-02 17:05:00,25.3,14.5,30.12,NNW,348,2.0,5.0,63,0.00,,,0.00,142.0,meteohub,2013-03-02 22:05:00,
2013-03-02 17:10:00,25.2,14.7,30.12,NW,323,2.0,5.0,64,0.00,,,0.00,135.0,meteohub,2013-03-02 22:10:00,
2013-03-02 17:15:00,25.0,14.2,30.12,NNW,340,2.0,4.0,63,0.00,,,0.00,116.0,meteohub,2013-03-02 22:15:00,
2013-03-02 17:20:00,25.0,14.5,30.12,NNW,333,1.0,3.0,64,0.00,,,0.00,121.0,meteohub,2013-03-02 22:20:00,
2013-03-02 17:25:00,25.0,14.9,30.12,NNW,339,1.0,4.0,65,0.00,,,0.00,76.0,meteohub,2013-03-02 22:25:00,
2013-03-02 17:30:00,25.0,14.9,30.12,WNW,301,2.0,4.0,65,0.00,,,0.00,74.0,meteohub,2013-03-02 22:30:00,
2013-03-02 17:35:00,24.8,14.7,30.12,NW,320,2.0,4.0,65,0.00,,,0.00,49.0,meteohub,2013-03-02 22:35:00,
2013-03-02 17:40:00,24.6,14.9,30.12,NW,319,1.0,3.0,66,0.00,,,0.00,42.0,meteohub,2013-03-02 22:40:00,
2013-03-02 17:45:00,24.4,15.1,30.12,NNW,329,2.0,3.0,67,0.00,,,0.00,37.0,meteohub,2013-03-02 22:45:00,
2013-03-02 17:50:00,24.1,14.7,30.12,NW,312,2.0,3.0,67,0.00,,,0.00,32.0,meteohub,2013-03-02 22:50:00,
2013-03-02 17:55:00,23.9,14.5,30.12,NW,314,3.0,4.0,67,0.00,,,0.00,26.0,meteohub,2013-03-02 22:55:00,
2013-03-02 18:00:00,23.5,14.5,30.12,NW,311,0.0,4.0,68,0.00,,,0.00,23.0,meteohub,2013-03-02 23:00:00,
2013-03-02 18:05:00,23.4,14.4,30.12,NW,311,2.0,3.0,68,0.00,,,0.00,19.0,meteohub,2013-03-02 23:05:00,
2013-03-02 18:10:00,23.2,14.2,30.12,NW,313,1.0,4.0,68,0.00,,,0.00,14.0,meteohub,2013-03-02 23:10:00,
2013-03-02 18:15:00,22.8,14.2,30.12,NW,314,2.0,4.0,69,0.00,,,0.00,11.0,meteohub,2013-03-02 23:15:00,
2013-03-02 18:20:00,22.6,14.0,30.12,NW,317,2.0,3.0,69,0.00,,,0.00,9.0,meteohub,2013-03-02 23:20:00,
2013-03-02 18:25:00,22.5,13.8,30.12,North,9,0.0,3.0,69,0.00,,,0.00,5.0,meteohub,2013-03-02 23:25:00,
2013-03-02 18:30:00,22.3,14.0,30.12,NW,325,1.0,3.0,70,0.00,,,0.00,0.0,meteohub,2013-03-02 23:30:00,
2013-03-02 18:35:00,22.1,13.8,30.12,NW,306,1.0,3.0,70,0.00,,,0.00,0.0,meteohub,2013-03-02 23:35:00,
2013-03-02 18:40:00,21.7,14.2,30.12,NW,319,1.0,3.0,72,0.00,,,0.00,0.0,meteohub,2013-03-02 23:40:00,
2013-03-02 18:45:00,21.6,14.0,30.12,NW,316,2.0,2.0,72,0.00,,,0.00,0.0,meteohub,2013-03-02 23:45:00,
2013-03-02 18:50:00,21.4,13.8,30.12,North,355,1.0,3.0,72,0.00,,,0.00,0.0,meteohub,2013-03-02 23:50:00,
2013-03-02 18:55:00,21.2,13.8,30.13,NW,323,1.0,3.0,73,0.00,,,0.00,0.0,meteohub,2013-03-02 23:55:00,
2013-03-02 19:01:00,20.8,13.6,30.13,NW,320,1.0,3.0,73,0.00,,,0.00,0.0,meteohub,2013-03-03 00:01:00,
2013-03-02 19:05:00,20.8,13.8,30.13,NW,320,2.0,3.0,74,0.00,,,0.00,0.0,meteohub,2013-03-03 00:05:00,
2013-03-02 19:11:00,20.7,13.6,30.13,NW,320,2.0,3.0,74,0.00,,,0.00,0.0,meteohub,2013-03-03 00:11:00,
2013-03-02 19:16:00,20.5,13.8,30.13,NW,320,1.0,3.0,75,0.00,,,0.00,0.0,meteohub,2013-03-03 00:16:00,
2013-03-02 19:21:00,20.1,13.5,30.13,NW,320,2.0,3.0,75,0.00,,,0.00,0.0,meteohub,2013-03-03 00:21:00,
2013-03-02 19:26:00,19.9,13.8,30.13,NNW,327,2.0,3.0,77,0.00,,,0.00,0.0,meteohub,2013-03-03 00:26:00,
2013-03-02 19:31:00,19.9,14.2,30.13,NW,315,2.0,3.0,78,0.00,,,0.00,0.0,meteohub,2013-03-03 00:31:00,
2013-03-02 19:36:00,19.8,14.4,30.13,NW,324,2.0,3.0,79,0.00,,,0.00,0.0,meteohub,2013-03-03 00:36:00,
2013-03-02 19:41:00,19.8,14.5,30.13,NW,325,2.0,3.0,80,0.00,,,0.00,0.0,meteohub,2013-03-03 00:41:00,
2013-03-02 19:46:00,19.6,14.4,30.13,NW,321,2.0,4.0,80,0.00,,,0.00,0.0,meteohub,2013-03-03 00:46:00,
2013-03-02 19:51:00,19.4,14.5,30.13,NNW,336,3.0,4.0,81,0.00,,,0.00,0.0,meteohub,2013-03-03 00:51:00,
2013-03-02 19:56:00,19.4,14.5,30.13,NW,320,1.0,4.0,81,0.00,,,0.00,0.0,meteohub,2013-03-03 00:56:00,
2013-03-02 20:01:00,19.2,14.4,30.12,NW,325,3.0,4.0,81,0.00,,,0.00,0.0,meteohub,2013-03-03 01:01:00,
2013-03-02 20:06:00,19.0,14.2,30.12,NNW,330,2.0,4.0,81,0.00,,,0.00,0.0,meteohub,2013-03-03 01:06:00,
2013-03-02 20:11:00,19.0,14.2,30.12,NW,317,2.0,5.0,81,0.00,,,0.00,0.0,meteohub,2013-03-03 01:11:00,
2013-03-02 20:16:00,18.9,14.4,30.12,NW,314,2.0,5.0,82,0.00,,,0.00,0.0,meteohub,2013-03-03 01:16:00,
2013-03-02 20:21:00,18.9,14.4,30.12,NW,311,2.0,4.0,82,0.00,,,0.00,0.0,meteohub,2013-03-03 01:21:00,
2013-03-02 20:26:00,18.7,14.2,30.12,NW,312,1.0,4.0,82,0.00,,,0.00,0.0,meteohub,2013-03-03 01:26:00,
2013-03-02 20:31:00,18.5,14.0,30.12,NW,312,1.0,3.0,82,0.00,,,0.00,0.0,meteohub,2013-03-03 01:31:00,
2013-03-02 20:36:00,18.3,13.8,30.11,NW,312,2.0,3.0,82,0.00,,,0.00,0.0,meteohub,2013-03-03 01:36:00,
2013-03-02 20:41:00,18.1,13.6,30.11,NW,312,1.0,3.0,82,0.00,,,0.00,0.0,meteohub,2013-03-03 01:41:00,
2013-03-02 20:46:00,18.0,13.5,30.12,NW,312,1.0,3.0,82,0.00,,,0.00,0.0,meteohub,2013-03-03 01:46:00,
2013-03-02 20:51:00,17.6,13.3,30.12,NW,312,2.0,3.0,83,0.00,,,0.00,0.0,meteohub,2013-03-03 01:51:00,
2013-03-02 20:56:00,17.2,12.9,30.12,NW,312,1.0,3.0,83,0.00,,,0.00,0.0,meteohub,2013-03-03 01:56:00,
2013-03-02 21:01:00,17.1,12.7,30.12,NW,312,0.0,3.0,83,0.00,,,0.00,0.0,meteohub,2013-03-03 02:01:00,
2013-03-02 21:07:00,16.7,12.7,30.12,NW,312,0.0,2.0,84,0.00,,,0.00,0.0,meteohub,2013-03-03 02:07:00,
2013-03-02 21:12:00,16.3,12.6,30.11,NW,312,1.0,2.0,85,0.00,,,0.00,0.0,meteohub,2013-03-03 02:12:00,
2013-03-02 21:17:00,16.3,12.6,30.11,NW,312,2.0,2.0,85,0.00,,,0.00,0.0,meteohub,2013-03-03 02:17:00,
2013-03-02 21:22:00,16.5,12.7,30.11,NW,312,2.0,3.0,85,0.00,,,0.00,0.0,meteohub,2013-03-03 02:22:00,
2013-03-02 21:27:00,16.7,12.7,30.11,NW,312,2.0,3.0,84,0.00,,,0.00,0.0,meteohub,2013-03-03 02:27:00,
2013-03-02 21:32:00,16.7,12.7,30.11,NW,312,1.0,3.0,84,0.00,,,0.00,0.0,meteohub,2013-03-03 02:32:00,
2013-03-02 21:37:00,16.5,12.6,30.11,NW,312,1.0,3.0,84,0.00,,,0.00,0.0,meteohub,2013-03-03 02:37:00,
2013-03-02 21:42:00,16.3,12.0,30.11,NW,312,1.0,3.0,83,0.00,,,0.00,0.0,meteohub,2013-03-03 02:42:00,
2013-03-02 21:47:00,16.3,12.4,30.11,NW,312,1.0,2.0,84,0.00,,,0.00,0.0,meteohub,2013-03-03 02:47:00,
2013-03-02 21:52:00,16.3,12.4,30.11,NW,312,2.0,2.0,84,0.00,,,0.00,0.0,meteohub,2013-03-03 02:52:00,
2013-03-02 21:57:00,16.5,12.2,30.11,NW,312,1.0,3.0,83,0.00,,,0.00,0.0,meteohub,2013-03-03 02:57:00,
2013-03-02 22:02:00,16.5,12.2,30.11,NW,312,2.0,3.0,83,0.00,,,0.00,0.0,meteohub,2013-03-03 03:02:00,
2013-03-02 22:07:00,16.3,11.8,30.11,NW,312,1.0,3.0,82,0.00,,,0.00,0.0,meteohub,2013-03-03 03:07:00,
2013-03-02 22:12:00,16.0,11.5,30.10,NW,312,1.0,3.0,82,0.00,,,0.00,0.0,meteohub,2013-03-03 03:12:00,
2013-03-02 22:17:00,15.4,11.1,30.10,NW,312,1.0,3.0,83,0.00,,,0.00,0.0,meteohub,2013-03-03 03:17:00,
2013-03-02 22:22:00,15.1,11.1,30.10,NW,312,1.0,2.0,84,0.00,,,0.00,0.0,meteohub,2013-03-03 03:22:00,
2013-03-02 22:27:00,14.5,10.9,30.10,NW,312,0.0,2.0,85,0.00,,,0.00,0.0,meteohub,2013-03-03 03:27:00,
2013-03-02 22:32:00,14.4,10.8,30.10,NW,312,0.0,2.0,85,0.00,,,0.00,0.0,meteohub,2013-03-03 03:32:00,
2013-03-02 22:37:00,14.4,10.9,30.10,NW,312,0.0,2.0,86,0.00,,,0.00,0.0,meteohub,2013-03-03 03:37:00,
2013-03-02 22:42:00,14.2,10.8,30.10,NW,312,0.0,1.0,86,0.00,,,0.00,0.0,meteohub,2013-03-03 03:42:00,
2013-03-02 22:47:00,14.2,10.8,30.10,NW,312,1.0,1.0,86,0.00,,,0.00,0.0,meteohub,2013-03-03 03:47:00,
2013-03-02 22:52:00,13.8,10.2,30.10,NW,312,0.0,1.0,85,0.00,,,0.00,0.0,meteohub,2013-03-03 03:52:00,
2013-03-02 22:57:00,13.6,10.2,30.09,NW,312,1.0,1.0,86,0.00,,,0.00,0.0,meteohub,2013-03-03 03:57:00,
2013-03-02 23:02:00,13.5,10.0,30.09,NW,312,0.0,2.0,86,0.00,,,0.00,0.0,meteohub,2013-03-03 04:02:00,
2013-03-02 23:07:00,13.5,10.0,30.09,NW,312,0.0,2.0,86,0.00,,,0.00,0.0,meteohub,2013-03-03 04:07:00,
2013-03-02 23:12:00,13.3,9.9,30.09,NW,312,0.0,2.0,86,0.00,,,0.00,0.0,meteohub,2013-03-03 04:12:00,
2013-03-02 23:17:00,12.9,9.5,30.09,NW,312,0.0,1.0,86,0.00,,,0.00,0.0,meteohub,2013-03-03 04:17:00,
2013-03-02 23:22:00,12.7,9.3,30.09,NW,312,1.0,2.0,86,0.00,,,0.00,0.0,meteohub,2013-03-03 04:22:00,
2013-03-02 23:27:00,12.7,9.3,30.09,NW,312,1.0,2.0,86,0.00,,,0.00,0.0,meteohub,2013-03-03 04:27:00,
2013-03-02 23:32:00,12.7,9.7,30.09,NW,312,1.0,2.0,87,0.00,,,0.00,0.0,meteohub,2013-03-03 04:32:00,
2013-03-02 23:37:00,13.1,10.0,30.09,NW,312,1.0,3.0,87,0.00,,,0.00,0.0,meteohub,2013-03-03 04:37:00,
2013-03-02 23:42:00,13.1,9.7,30.09,NW,312,1.0,3.0,86,0.00,,,0.00,0.0,meteohub,2013-03-03 04:42:00,
2013-03-02 23:47:00,13.1,9.7,30.09,NW,312,1.0,3.0,86,0.00,,,0.00,0.0,meteohub,2013-03-03 04:47:00,
2013-03-02 23:52:00,12.9,9.5,30.09,NW,312,1.0,3.0,86,0.00,,,0.00,0.0,meteohub,2013-03-03 04:52:00,
2013-03-02 23:57:00,12.6,9.1,30.09,NNW,340,2.0,3.0,86,0.00,,,0.00,0.0,meteohub,2013-03-03 04:57:00,